This is the latest recevied weather packets stored in our database for station/object KM4KBD. If no packets are shown the sender has not sent any weather packets the latest 10 day(s).
| Time | Temp. | Humidity | Pressure | Rain* | Wind** | Luminosity | Snow |
|---|---|---|---|---|---|---|---|
| 1777901349 | 12.78° C | 75% | 1019.6 hPa | 0 mm | - | 85 W/m² | - |
| 1777901047 | 12.78° C | 76% | 1020.1 hPa | 0 mm | - | 62 W/m² | - |
| 1777900744 | 12.78° C | 75% | 1019.6 hPa | 0 mm | - | 69 W/m² | - |
| 1777900441 | 12.78° C | 76% | 1019.7 hPa | 0 mm | - | 105 W/m² | - |
| 1777900138 | 12.78° C | 77% | 1020 hPa | 0 mm | - | 121 W/m² | - |
| 1777899835 | 12.78° C | 77% | 1019.9 hPa | 0 mm | - | 114 W/m² | - |
| 1777898927 | 12.22° C | 78% | 1019.8 hPa | 0 mm | - | 64 W/m² | - |
| 1777898321 | 12.22° C | 80% | 1020 hPa | 0 mm | - | 97 W/m² | - |
| 1777898018 | 12.22° C | 80% | 1019.8 hPa | 0 mm | - | 85 W/m² | - |
| 1777897714 | 12.78° C | 80% | 1019.9 hPa | 0 mm | - | 71 W/m² | - |
| 1777897411 | 12.22° C | 81% | 1019.7 hPa | 0 mm | - | 115 W/m² | - |
| 1777897107 | 12.22° C | 84% | 1019.5 hPa | 0 mm | - | 128 W/m² | - |
| 1777896803 | 11.67° C | 87% | 1019.3 hPa | 0 mm | - | 114 W/m² | - |
| 1777896500 | 11.11° C | 89% | 1019.4 hPa | 0 mm | - | 100 W/m² | - |
| 1777896197 | 10.56° C | 92% | 1019.3 hPa | 0 mm | - | 110 W/m² | - |
| 1777895896 | 10° C | 93% | 1019.3 hPa | 0 mm | - | 104 W/m² | - |
| 1777895290 | 10° C | 93% | 1019.5 hPa | 0 mm | - | 49 W/m² | - |
| 1777894685 | 10° C | 93% | 1019.6 hPa | 0 mm | - | 53 W/m² | - |
| 1777894079 | 9.44° C | 93% | 1019.6 hPa | 0 mm | - | 27 W/m² | - |
| 1777893775 | 10° C | 92% | 1019.8 hPa | 0 mm | - | 19 W/m² | - |
| 1777893472 | 10° C | 91% | 1019.8 hPa | 0 mm | - | 17 W/m² | - |
| 1777893169 | 10° C | 90% | 1019.5 hPa | 0 mm | - | 13 W/m² | - |
| 1777892865 | 10° C | 89% | 1020 hPa | 1.78 mm | - | 7 W/m² | - |
| 1777892562 | 10.56° C | 87% | 1019.9 hPa | 1.78 mm | - | 2 W/m² | - |
| 1777892257 | 10.56° C | 86% | 1020 hPa | 1.78 mm | - | 1 W/m² | - |
* Rain latest hour (hover to see other rain measurements)
** Current wind speed in m/s (hover to see current wind gust speed)